Startpagina
METAR-TAF:

METAR-TAF

Vliegvelden :

Luchthaven Managua

Managua, Nicaragua

breedte: 12-09N, lengte: 086-10W, hoogte: 50 m

Actueel weer

Dit bericht is 57 minuten geleden gemaakt, om 08:00 UTC
Wind 6 kt uit het zuidoosten
Temperatuur 24°C
Vochtigheid 89%
Druk 1012 hPa
Zicht 10 km of meer
Weinig wolken op 2100 ft
Verspreide wolken op 30000 ft

METAR: MNMG 230800Z 14006KT 9999 FEW021 SCT300 24/22 Q1012 A2989 NOSIG

Tijdstip: 02:57 (08:57 UTC)

Verwachting

Dit bericht is 4 uur en het 53 minuten geleden gemaakt, om 04:04 UTC
Verwachting geldig van 23 om 06 UTC tot 24 om 06 UTC
Wind 6 kt uit het oostzuidoosten
Zicht 10 km of meer
Weinig wolken op 2200 ft
Verspreide wolken op 30000 ft
Wijzigt naar
van 23 om 14 UTC tot 23 om 16 UTC
Wind 12 kt uit het oosten
Verspreide wolken op 2200 ft

TAF: MNMG 230404Z 2306/2406 12006KT 9999 FEW022 SCT300 BECMG 2314/2316 08012KT SCT022

Waarnemingen en weersverwachtingen van meer dan 4000 vliegvelden (METAR en TAF).

De beschikbare stations zijn de gele en rode punten op de kaart.

Ga met uw muis naar het station om de naam te zien.

Klik dan om waarnemingen en weersverwachtingen te zien.

kaart wijzigen: klik op de groene knoppen met een zwart kruis om in te zoomen, op de groene knop met een streepje om uit te zoomen of op de groene pijlen voor aangrenzende kaarten.


METAR-TAF: